createdAt,value
2022-08-12T00:00:02.336Z,20.63
2022-08-12T00:02:46.295Z,20.56
2022-08-12T00:05:31.881Z,20.50
2022-08-12T00:08:14.519Z,20.46
2022-08-12T00:10:56.666Z,20.40
2022-08-12T00:13:38.807Z,20.30
2022-08-12T00:16:21.195Z,20.31
2022-08-12T00:19:03.271Z,20.28
2022-08-12T00:21:48.222Z,20.22
2022-08-12T00:24:30.301Z,20.16
2022-08-12T00:27:13.221Z,20.10
2022-08-12T00:29:55.739Z,20.12
2022-08-12T00:32:38.452Z,20.04
2022-08-12T00:35:23.539Z,19.97
2022-08-12T00:38:12.797Z,20.00
2022-08-12T00:40:55.716Z,20.02
2022-08-12T00:43:27.419Z,19.99
2022-08-12T00:46:10.067Z,19.96
2022-08-12T00:48:40.056Z,19.95
2022-08-12T00:51:11.640Z,19.85
2022-08-12T00:53:44.087Z,19.78
2022-08-12T00:56:13.734Z,19.79
2022-08-12T00:58:50.911Z,19.76
2022-08-12T01:01:21.128Z,19.69
2022-08-12T01:04:04.668Z,19.66
2022-08-12T01:06:54.132Z,19.63
2022-08-12T01:09:39.389Z,19.62
2022-08-12T01:12:09.466Z,19.59
2022-08-12T01:14:40.900Z,19.58
2022-08-12T01:17:10.868Z,19.55
2022-08-12T01:19:40.723Z,19.53
2022-08-12T01:22:25.864Z,19.49
2022-08-12T01:25:08.194Z,19.46
2022-08-12T01:27:39.193Z,19.45
2022-08-12T01:30:11.520Z,19.39
2022-08-12T01:32:43.647Z,19.36
2022-08-12T01:35:16.371Z,19.30
2022-08-12T01:37:50.041Z,19.32
2022-08-12T01:40:36.046Z,19.30
2022-08-12T01:43:09.676Z,19.28
2022-08-12T01:45:44.294Z,19.16
2022-08-12T01:48:22.731Z,19.08
2022-08-12T01:51:04.544Z,19.05
2022-08-12T01:53:50.168Z,19.00
2022-08-12T01:56:25.970Z,18.98
2022-08-12T01:59:12.642Z,18.89
2022-08-12T02:01:43.400Z,18.92
2022-08-12T02:04:34.149Z,18.87
2022-08-12T02:07:23.910Z,18.85
2022-08-12T02:10:49.470Z,18.82
2022-08-12T02:13:13.395Z,18.80
2022-08-12T02:15:48.484Z,18.76
2022-08-12T02:18:29.498Z,18.73
2022-08-12T02:21:04.937Z,18.71
2022-08-12T02:23:36.384Z,18.70
2022-08-12T02:26:08.529Z,18.65
2022-08-12T02:28:42.283Z,18.62
2022-08-12T02:31:12.629Z,18.60
2022-08-12T02:33:42.827Z,18.57
2022-08-12T02:36:12.855Z,18.55
2022-08-12T02:38:45.556Z,18.52
2022-08-12T02:41:18.773Z,18.51
2022-08-12T02:43:54.388Z,18.45
2022-08-12T02:46:29.203Z,18.43
2022-08-12T02:49:01.900Z,18.40
2022-08-12T02:51:33.871Z,18.38
2022-08-12T02:54:06.575Z,18.28
2022-08-12T02:56:37.817Z,18.28
2022-08-12T02:59:12.375Z,18.29
2022-08-12T03:01:48.137Z,18.21
2022-08-12T03:04:23.245Z,18.10
2022-08-12T03:06:56.936Z,18.10
2022-08-12T03:09:27.582Z,18.06
2022-08-12T03:12:09.607Z,18.08
2022-08-12T03:14:47.493Z,18.03
2022-08-12T03:17:20.950Z,18.01
2022-08-12T03:20:09.473Z,17.96
2022-08-12T03:22:42.681Z,18.01
2022-08-12T03:25:16.325Z,18.00
2022-08-12T03:27:49.913Z,17.92
2022-08-12T03:30:23.618Z,17.95
2022-08-12T03:32:54.459Z,17.91
2022-08-12T03:35:40.980Z,17.86
2022-08-12T03:38:16.128Z,17.83
2022-08-12T03:41:07.699Z,17.79
2022-08-12T03:44:00.257Z,17.80
2022-08-12T03:46:49.001Z,17.79
2022-08-12T03:49:31.329Z,17.77
2022-08-12T03:52:14.014Z,17.73
2022-08-12T03:54:56.119Z,17.68
2022-08-12T03:57:38.378Z,17.68
2022-08-12T04:00:26.004Z,17.67
2022-08-12T04:03:01.853Z,17.64
2022-08-12T04:05:56.204Z,17.60
2022-08-12T04:08:25.984Z,17.53
2022-08-12T04:11:08.992Z,17.50
2022-08-12T04:13:38.779Z,17.47
2022-08-12T04:16:10.188Z,17.38
2022-08-12T04:18:42.910Z,17.39
2022-08-12T04:21:16.085Z,17.38
2022-08-12T04:23:48.574Z,17.30
2022-08-12T04:26:19.056Z,17.32
2022-08-12T04:28:48.758Z,17.30
2022-08-12T04:31:18.546Z,17.24
2022-08-12T04:33:50.947Z,17.25
2022-08-12T04:36:20.817Z,17.20
2022-08-12T04:38:50.604Z,17.24
2022-08-12T04:41:21.316Z,17.23
2022-08-12T04:43:54.506Z,17.16
2022-08-12T04:46:34.602Z,17.13
2022-08-12T04:49:07.991Z,17.16
2022-08-12T04:51:38.155Z,17.18
2022-08-12T04:54:08.118Z,17.13
2022-08-12T04:56:37.788Z,17.11
2022-08-12T04:59:07.805Z,17.12
2022-08-12T05:01:37.469Z,17.09
2022-08-12T05:04:10.917Z,17.14
2022-08-12T05:06:40.794Z,17.12
2022-08-12T05:09:10.980Z,17.10
2022-08-12T05:11:53.706Z,17.13
2022-08-12T05:14:24.021Z,17.11
2022-08-12T05:16:53.786Z,17.10
2022-08-12T05:19:26.751Z,17.14
2022-08-12T05:21:56.535Z,17.14
2022-08-12T05:24:26.233Z,17.19
2022-08-12T05:26:56.129Z,17.17
2022-08-12T05:30:06.267Z,17.20
2022-08-12T05:32:20.687Z,17.19
2022-08-12T05:34:53.496Z,17.20
2022-08-12T05:37:23.723Z,17.23
2022-08-12T05:39:53.647Z,17.20
2022-08-12T05:42:32.489Z,17.22
2022-08-12T05:45:04.512Z,17.25
2022-08-12T05:47:44.774Z,17.26
2022-08-12T05:50:26.555Z,17.34
2022-08-12T05:52:56.185Z,17.33
2022-08-12T05:55:31.095Z,17.39
2022-08-12T05:58:01.674Z,17.46
2022-08-12T06:00:32.079Z,17.46
2022-08-12T06:03:03.626Z,17.41
2022-08-12T06:05:51.810Z,17.45
2022-08-12T06:08:26.818Z,17.41
2022-08-12T06:10:57.193Z,17.45
2022-08-12T06:13:52.925Z,17.50
2022-08-12T06:16:18.926Z,17.49
2022-08-12T06:18:48.952Z,17.50
2022-08-12T06:21:23.424Z,17.52
2022-08-12T06:23:54.502Z,17.49
2022-08-12T06:26:24.151Z,17.55
2022-08-12T06:28:54.380Z,17.58
2022-08-12T06:31:26.966Z,17.61
2022-08-12T06:35:09.167Z,17.63
2022-08-12T06:36:50.533Z,17.71
2022-08-12T06:39:20.477Z,17.73
2022-08-12T06:42:32.102Z,17.76
2022-08-12T06:44:52.540Z,17.74
2022-08-12T06:47:22.200Z,17.81
2022-08-12T06:49:52.492Z,17.84
2022-08-12T06:52:25.128Z,17.96
2022-08-12T06:54:55.787Z,18.05
2022-08-12T06:58:05.549Z,18.10
2022-08-12T07:00:19.316Z,18.22
2022-08-12T07:02:49.060Z,18.32
2022-08-12T07:05:24.787Z,18.34
2022-08-12T07:08:12.909Z,18.44
2022-08-12T07:10:45.366Z,18.57
2022-08-12T07:13:15.203Z,18.60
2022-08-12T07:15:45.352Z,18.74
2022-08-12T07:18:19.939Z,18.80
2022-08-12T07:20:52.948Z,18.90
2022-08-12T07:23:25.522Z,19.04
2022-08-12T07:25:58.305Z,19.20
2022-08-12T07:28:31.056Z,19.36
2022-08-12T07:31:00.912Z,19.47
2022-08-12T07:33:32.926Z,19.63
2022-08-12T07:36:06.217Z,19.75
2022-08-12T07:38:42.350Z,19.90
2022-08-12T07:41:15.529Z,20.06
2022-08-12T07:43:47.422Z,20.21
2022-08-12T07:46:20.499Z,20.39
2022-08-12T07:48:52.345Z,20.57
2022-08-12T07:51:24.857Z,20.77
2022-08-12T07:54:00.749Z,20.92
2022-08-12T07:56:33.845Z,21.14
2022-08-12T07:59:04.772Z,21.33
2022-08-12T08:01:38.303Z,21.56
2022-08-12T08:04:23.123Z,21.79
2022-08-12T08:06:53.174Z,21.89
2022-08-12T08:09:26.829Z,22.07
2022-08-12T08:12:09.658Z,22.28
2022-08-12T08:14:51.981Z,22.54
2022-08-12T08:17:23.461Z,22.73
2022-08-12T08:20:03.733Z,22.95
2022-08-12T08:22:41.419Z,23.19
2022-08-12T08:25:36.315Z,23.43
2022-08-12T08:28:06.364Z,23.80
2022-08-12T08:30:38.350Z,24.07
2022-08-12T08:33:24.456Z,24.29
2022-08-12T08:36:00.877Z,24.48
2022-08-12T08:38:35.203Z,24.72
2022-08-12T08:42:16.578Z,25.02
2022-08-12T08:44:11.916Z,25.24
2022-08-12T08:46:43.951Z,25.49
2022-08-12T08:49:16.124Z,25.73
2022-08-12T08:51:48.328Z,25.96
2022-08-12T08:54:19.890Z,26.16
2022-08-12T08:56:54.026Z,26.33
2022-08-12T08:59:24.474Z,26.53
2022-08-12T09:01:54.505Z,26.61
2022-08-12T09:05:11.902Z,26.76
2022-08-12T09:10:04.034Z,27.21
2022-08-12T09:12:54.553Z,27.36
2022-08-12T09:15:35.665Z,27.54
2022-08-12T09:18:09.033Z,27.70
2022-08-12T09:20:40.182Z,27.82
2022-08-12T09:23:59.128Z,28.01
2022-08-12T09:26:04.902Z,28.17
2022-08-12T09:32:03.216Z,28.37
2022-08-12T09:34:26.181Z,28.58
2022-08-12T09:37:00.408Z,28.63
2022-08-12T09:40:05.197Z,28.81
2022-08-12T09:42:43.511Z,28.89
2022-08-12T09:46:06.329Z,29.06
2022-08-12T09:48:20.023Z,29.15
2022-08-12T09:50:55.604Z,29.30
2022-08-12T09:54:34.137Z,29.43
2022-08-12T09:56:58.244Z,29.50
2022-08-12T09:59:10.063Z,29.51
2022-08-12T10:02:41.928Z,29.58
2022-08-12T10:04:32.842Z,29.70
2022-08-12T10:07:03.075Z,29.77
2022-08-12T10:09:57.387Z,29.82
2022-08-12T10:12:37.426Z,29.83
2022-08-12T10:15:08.035Z,29.94
2022-08-12T10:18:05.965Z,30.00
2022-08-12T10:20:37.508Z,30.11
2022-08-12T10:23:07.242Z,30.16
2022-08-12T10:26:35.409Z,30.21
2022-08-12T10:29:02.811Z,30.23
2022-08-12T10:32:19.736Z,30.34
2022-08-12T10:34:27.042Z,30.48
2022-08-12T10:37:10.744Z,30.55
2022-08-12T10:40:01.022Z,30.60
2022-08-12T10:42:54.114Z,30.71
2022-08-12T10:45:23.976Z,30.76
2022-08-12T10:48:15.945Z,30.81
2022-08-12T10:51:01.500Z,30.83
2022-08-12T10:53:45.504Z,30.88
2022-08-12T10:56:17.171Z,30.90
2022-08-12T10:58:48.430Z,30.91
2022-08-12T11:01:49.294Z,30.88
2022-08-12T11:04:26.953Z,30.92
2022-08-12T11:08:37.848Z,31.00
2022-08-12T11:09:59.984Z,31.07
2022-08-12T11:12:54.986Z,31.12
2022-08-12T11:15:33.174Z,31.15
2022-08-12T11:18:17.846Z,31.19
2022-08-12T11:20:49.255Z,31.28
2022-08-12T11:23:37.135Z,31.36
2022-08-12T11:26:09.044Z,31.45
2022-08-12T11:28:39.946Z,31.52
2022-08-12T11:31:14.269Z,31.54
2022-08-12T11:34:05.706Z,31.54
2022-08-12T11:36:39.489Z,31.58
2022-08-12T11:39:13.075Z,31.62
2022-08-12T11:41:43.226Z,31.69
2022-08-12T11:44:36.812Z,31.71
2022-08-12T11:47:09.574Z,31.67
2022-08-12T11:49:39.475Z,31.70
2022-08-12T11:52:35.319Z,31.70
2022-08-12T11:55:01.616Z,31.78
2022-08-12T11:58:17.199Z,31.84
2022-08-12T12:02:01.267Z,31.89
2022-08-12T12:03:12.327Z,31.96
2022-08-12T12:05:46.978Z,31.97
2022-08-12T12:08:38.112Z,31.87
2022-08-12T12:11:14.971Z,31.85
2022-08-12T12:14:07.684Z,31.87
2022-08-12T12:16:38.312Z,31.97
2022-08-12T12:19:10.586Z,32.01
2022-08-12T12:21:47.376Z,32.11
2022-08-12T12:24:21.831Z,32.07
2022-08-12T12:27:00.411Z,32.03
2022-08-12T12:30:14.096Z,32.06
2022-08-12T12:32:28.962Z,32.09
2022-08-12T12:35:14.352Z,32.16
2022-08-12T12:38:03.616Z,32.23
2022-08-12T12:40:35.642Z,32.21
2022-08-12T12:43:13.774Z,32.28
2022-08-12T12:45:46.379Z,32.31
2022-08-12T12:48:17.737Z,32.27
2022-08-12T12:51:09.434Z,32.33
2022-08-12T12:54:08.845Z,32.30
2022-08-12T12:56:33.943Z,32.32
2022-08-12T12:59:07.608Z,32.36
2022-08-12T13:02:08.102Z,32.38
2022-08-12T13:04:38.780Z,32.47
2022-08-12T13:07:09.464Z,32.48
2022-08-12T13:09:39.227Z,32.49
2022-08-12T13:12:12.611Z,32.48
2022-08-12T13:14:45.003Z,32.52
2022-08-12T13:17:16.669Z,32.61
2022-08-12T13:19:49.957Z,32.64
2022-08-12T13:22:21.633Z,32.69
2022-08-12T13:24:56.929Z,32.72
2022-08-12T13:27:34.428Z,32.71
2022-08-12T13:30:11.565Z,32.68
2022-08-12T13:32:43.629Z,32.69
2022-08-12T13:35:33.223Z,32.70
2022-08-12T13:38:34.685Z,32.68
2022-08-12T13:41:11.039Z,32.67
2022-08-12T13:43:41.992Z,32.66
2022-08-12T13:46:16.515Z,32.69
2022-08-12T13:48:46.192Z,32.67
2022-08-12T13:51:21.028Z,32.67
2022-08-12T13:53:58.299Z,32.70
2022-08-12T13:56:34.673Z,32.70
2022-08-12T13:59:08.104Z,32.64
2022-08-12T14:01:41.313Z,32.67
2022-08-12T14:04:11.642Z,32.61
2022-08-12T14:06:41.966Z,32.63
2022-08-12T14:09:17.757Z,32.59
2022-08-12T14:11:58.356Z,32.61
2022-08-12T14:14:31.153Z,32.58
2022-08-12T14:17:10.374Z,32.56
2022-08-12T14:20:00.993Z,32.56
2022-08-12T14:22:32.112Z,32.64
2022-08-12T14:25:03.083Z,32.64
2022-08-12T14:28:03.255Z,32.65
2022-08-12T14:30:29.653Z,32.64
2022-08-12T14:33:03.431Z,32.66
2022-08-12T14:35:41.200Z,32.61
2022-08-12T14:38:26.183Z,32.52
2022-08-12T14:40:59.264Z,32.48
2022-08-12T14:43:58.734Z,32.45
2022-08-12T14:46:24.344Z,32.40
2022-08-12T14:48:57.023Z,32.39
2022-08-12T14:52:48.298Z,32.40
2022-08-12T14:57:19.870Z,32.50
2022-08-12T15:00:05.947Z,32.45
2022-08-12T15:02:35.746Z,32.46
2022-08-12T15:05:08.858Z,32.44
2022-08-12T15:07:49.957Z,32.42
2022-08-12T15:10:25.381Z,32.43
2022-08-12T15:13:07.213Z,32.48
2022-08-12T15:15:43.626Z,32.50
2022-08-12T15:18:20.845Z,32.47
2022-08-12T15:20:55.834Z,32.22
2022-08-12T15:23:32.765Z,32.33
2022-08-12T15:26:04.936Z,32.35
2022-08-12T15:28:37.026Z,32.34
2022-08-12T15:31:09.587Z,32.34
2022-08-12T15:33:58.172Z,32.32
2022-08-12T15:36:54.183Z,32.27
2022-08-12T15:39:20.187Z,32.25
2022-08-12T15:41:55.304Z,32.28
2022-08-12T15:44:38.022Z,32.22
2022-08-12T15:47:12.308Z,32.20
2022-08-12T15:50:00.015Z,32.13
2022-08-12T15:52:33.383Z,32.10
2022-08-12T15:55:06.346Z,32.09
2022-08-12T15:57:53.206Z,32.11
2022-08-12T16:00:33.105Z,32.07
2022-08-12T16:03:05.499Z,32.05
2022-08-12T16:06:17.020Z,32.06
2022-08-12T16:08:35.753Z,32.01
2022-08-12T16:11:16.089Z,32.04
2022-08-12T16:13:48.719Z,31.97
2022-08-12T16:16:23.501Z,31.94
2022-08-12T16:18:59.550Z,31.93
2022-08-12T16:21:52.682Z,31.91
2022-08-12T16:24:22.101Z,31.90
2022-08-12T16:26:54.149Z,31.91
2022-08-12T16:29:29.511Z,31.94
2022-08-12T16:32:23.924Z,31.84
2022-08-12T16:34:55.899Z,31.83
2022-08-12T16:38:04.783Z,31.83
2022-08-12T16:40:18.876Z,31.78
2022-08-12T16:42:53.982Z,31.78
2022-08-12T16:46:05.532Z,31.74
2022-08-12T16:48:34.972Z,31.77
2022-08-12T16:51:09.537Z,31.74
2022-08-12T16:53:44.419Z,31.70
2022-08-12T16:56:18.395Z,31.70
2022-08-12T16:58:52.114Z,31.69
2022-08-12T17:01:22.237Z,31.70
2022-08-12T17:04:04.558Z,31.72
2022-08-12T17:06:43.281Z,31.82
2022-08-12T17:09:17.719Z,31.71
2022-08-12T17:11:50.744Z,31.70
2022-08-12T17:14:23.472Z,31.71
2022-08-12T17:16:55.601Z,31.69
2022-08-12T17:19:54.666Z,31.65
2022-08-12T17:22:16.865Z,31.62
2022-08-12T17:24:55.884Z,31.63
2022-08-12T17:27:30.831Z,31.59
2022-08-12T17:30:04.826Z,31.52
2022-08-12T17:32:36.936Z,31.49
2022-08-12T17:35:20.638Z,31.40
2022-08-12T17:37:54.674Z,31.38
2022-08-12T17:40:36.332Z,31.36
2022-08-12T17:43:56.784Z,31.36
2022-08-12T17:46:02.027Z,31.31
2022-08-12T17:48:34.781Z,31.30
2022-08-12T17:51:15.517Z,31.25
2022-08-12T17:54:10.766Z,31.24
2022-08-12T17:56:39.332Z,31.20
2022-08-12T17:59:13.117Z,31.15
2022-08-12T18:01:46.128Z,31.12
2022-08-12T18:04:22.798Z,31.20
2022-08-12T18:07:06.199Z,31.18
2022-08-12T18:09:40.994Z,31.07
2022-08-12T18:12:26.916Z,31.04
2022-08-12T18:15:03.173Z,30.93
2022-08-12T18:17:40.970Z,30.84
2022-08-12T18:20:15.756Z,30.76
2022-08-12T18:22:46.760Z,30.67
2022-08-12T18:26:12.381Z,30.52
2022-08-12T18:28:30.857Z,30.41
2022-08-12T18:31:04.552Z,30.30
2022-08-12T18:33:44.013Z,30.07
2022-08-12T18:36:22.503Z,29.97
2022-08-12T18:38:59.495Z,29.76
2022-08-12T18:41:33.653Z,29.62
2022-08-12T18:44:09.424Z,29.58
2022-08-12T18:46:54.493Z,29.41
2022-08-12T18:49:33.391Z,29.32
2022-08-12T18:52:11.942Z,29.21
2022-08-12T18:54:48.970Z,29.08
2022-08-12T18:57:59.702Z,28.87
2022-08-12T19:00:21.046Z,28.77
2022-08-12T19:02:54.852Z,28.63
2022-08-12T19:05:45.803Z,28.56
2022-08-12T19:08:14.570Z,28.39
2022-08-12T19:10:48.073Z,28.29
2022-08-12T19:13:33.919Z,28.18
2022-08-12T19:16:12.602Z,28.02
2022-08-12T19:18:45.737Z,27.94
2022-08-12T19:21:20.187Z,27.83
2022-08-12T19:24:11.243Z,27.78
2022-08-12T19:26:38.825Z,27.62
2022-08-12T19:29:10.762Z,27.43
2022-08-12T19:31:57.449Z,27.35
2022-08-12T19:37:38.356Z,27.15
2022-08-12T19:40:30.809Z,27.06
2022-08-12T19:43:19.399Z,26.94
2022-08-12T19:45:53.726Z,26.85
2022-08-12T19:48:24.938Z,26.77
2022-08-12T19:51:08.622Z,26.68
2022-08-12T19:53:56.681Z,26.55
2022-08-12T19:56:28.110Z,26.47
2022-08-12T19:59:20.826Z,26.41
2022-08-12T20:02:02.563Z,26.32
2022-08-12T20:04:37.494Z,26.20
2022-08-12T20:07:23.331Z,26.12
2022-08-12T20:09:54.188Z,26.01
2022-08-12T20:12:31.732Z,25.92
2022-08-12T20:15:05.386Z,25.82
2022-08-12T20:17:36.398Z,25.70
2022-08-12T20:20:27.517Z,25.64
2022-08-12T20:23:00.638Z,25.55
2022-08-12T20:25:52.495Z,25.46
2022-08-12T20:28:28.797Z,25.36
2022-08-12T20:30:59.816Z,25.28
2022-08-12T20:33:32.599Z,25.18
2022-08-12T20:36:40.881Z,25.09
2022-08-12T20:39:35.978Z,25.02
2022-08-12T20:42:07.811Z,24.91
2022-08-12T20:44:40.247Z,24.86
2022-08-12T20:47:18.243Z,24.77
2022-08-12T20:49:55.649Z,24.73
2022-08-12T20:52:34.248Z,24.64
2022-08-12T20:55:17.118Z,24.55
2022-08-12T20:58:02.660Z,24.47
2022-08-12T21:00:34.871Z,24.42
2022-08-12T21:03:18.181Z,24.31
2022-08-12T21:06:12.300Z,24.20
2022-08-12T21:08:43.938Z,24.14
2022-08-12T21:11:19.552Z,24.02
2022-08-12T21:13:49.396Z,23.95
2022-08-12T21:16:35.538Z,23.91
2022-08-12T21:19:08.052Z,23.80
2022-08-12T21:21:50.287Z,23.72
2022-08-12T21:24:20.668Z,23.64
2022-08-12T21:27:07.349Z,23.55
2022-08-12T21:29:49.950Z,23.49
2022-08-12T21:32:47.061Z,23.41
2022-08-12T21:35:17.521Z,23.33
2022-08-12T21:37:53.225Z,23.28
2022-08-12T21:40:32.346Z,23.22
2022-08-12T21:43:10.065Z,23.12
2022-08-12T21:45:47.492Z,23.06
2022-08-12T21:48:30.551Z,22.97
2022-08-12T21:51:00.235Z,22.91
2022-08-12T21:54:06.091Z,22.87
2022-08-12T21:56:34.407Z,22.73
2022-08-12T21:59:14.411Z,22.65
2022-08-12T22:01:48.971Z,22.65
2022-08-12T22:04:32.227Z,22.56
2022-08-12T22:07:03.192Z,22.53
2022-08-12T22:09:42.664Z,22.45
2022-08-12T22:12:26.185Z,22.42
2022-08-12T22:14:59.624Z,22.36
2022-08-12T22:17:50.119Z,22.24
2022-08-12T22:20:21.828Z,22.23
2022-08-12T22:22:56.468Z,22.19
2022-08-12T22:25:27.756Z,22.10
2022-08-12T22:28:10.206Z,22.07
2022-08-12T22:31:01.121Z,22.00
2022-08-12T22:33:30.880Z,21.92
2022-08-12T22:36:28.796Z,21.87
2022-08-12T22:39:01.694Z,21.81
2022-08-12T22:41:43.824Z,21.78
2022-08-12T22:44:27.906Z,21.71
2022-08-12T22:47:12.844Z,21.61
2022-08-12T22:50:03.759Z,21.56
2022-08-12T22:52:35.127Z,21.56
2022-08-12T22:55:04.829Z,21.49
2022-08-12T22:57:49.824Z,21.41
2022-08-12T23:00:28.083Z,21.36
2022-08-12T23:03:03.335Z,21.31
2022-08-12T23:05:57.130Z,21.24
2022-08-12T23:11:04.553Z,21.14
2022-08-12T23:13:48.658Z,21.08
2022-08-12T23:16:29.323Z,21.04
2022-08-12T23:19:10.443Z,20.98
2022-08-12T23:22:03.969Z,20.93
2022-08-12T23:24:55.654Z,20.88
2022-08-12T23:27:51.119Z,20.83
2022-08-12T23:30:32.320Z,20.78
2022-08-12T23:33:13.121Z,20.75
2022-08-12T23:35:59.347Z,20.72
2022-08-12T23:38:34.583Z,20.63
2022-08-12T23:41:05.684Z,20.58
2022-08-12T23:43:39.847Z,20.56
2022-08-12T23:46:11.662Z,20.54
2022-08-12T23:48:47.690Z,20.49
2022-08-12T23:51:25.236Z,20.40
2022-08-12T23:53:59.878Z,20.39
2022-08-12T23:56:33.639Z,20.35
2022-08-12T23:59:04.134Z,20.34
